Time;durP1;ratioP1;P1;durP2;ratioP2;P2;SDS_P1;SDS_P2;PMS_P1;PMS_P2;Temp;Humidity;BMP_temperature;BMP_pressure;BME280_temperature;BME280_humidity;BME280_pressure;Samples;Min_cycle;Max_cycle;Signal;HPM_P1;HPM_P2
2023/06/26 00:01:22;;;;;;;10.30;3.73;;;17.60;95.20;;;;;;5052342;28;20303;-79
2023/06/26 00:03:47;;;;;;;10.47;4.87;;;17.60;95.70;;;;;;5053024;28;20619;-79
2023/06/26 00:06:14;;;;;;;7.10;3.97;;;17.60;95.50;;;;;;5052327;28;20521;-79
2023/06/26 00:08:40;;;;;;;10.40;3.87;;;17.50;95.60;;;;;;5056884;28;20181;-78
2023/06/26 00:11:05;;;;;;;7.97;3.37;;;17.50;95.70;;;;;;5061580;28;20434;-79
2023/06/26 00:13:31;;;;;;;7.40;3.40;;;17.40;95.90;;;;;;5052423;28;21027;-79
2023/06/26 00:15:56;;;;;;;9.07;3.80;;;17.40;95.80;;;;;;5052421;28;20625;-79
2023/06/26 00:18:23;;;;;;;5.60;3.20;;;17.30;96.20;;;;;;5052329;28;20201;-79
2023/06/26 00:20:49;;;;;;;11.37;4.73;;;17.30;96.40;;;;;;5051993;28;20204;-79
2023/06/26 00:23:17;;;;;;;8.50;3.67;;;17.30;96.50;;;;;;5052057;28;20427;-80
2023/06/26 00:25:43;;;;;;;10.13;3.97;;;17.20;96.70;;;;;;5051842;28;20464;-79
2023/06/26 00:28:09;;;;;;;15.23;4.13;;;17.30;96.90;;;;;;5051966;28;20412;-79
2023/06/26 00:30:34;;;;;;;5.63;3.03;;;17.20;97.00;;;;;;5055530;28;20919;-79
2023/06/26 00:33:00;;;;;;;8.27;3.87;;;17.20;97.10;;;;;;5058907;28;20187;-79
2023/06/26 00:35:26;;;;;;;7.97;3.57;;;17.10;97.40;;;;;;5052380;28;20217;-79
2023/06/26 00:37:51;;;;;;;9.20;3.70;;;17.00;97.40;;;;;;5058736;28;20182;-79
2023/06/26 00:40:17;;;;;;;8.37;4.03;;;17.10;97.50;;;;;;5051964;28;20197;-79
2023/06/26 00:42:43;;;;;;;7.30;4.30;;;17.00;97.70;;;;;;5050602;28;20213;-79
2023/06/26 00:45:08;;;;;;;8.90;4.00;;;17.00;97.70;;;;;;5052168;28;20213;-79
2023/06/26 00:47:34;;;;;;;8.60;3.90;;;17.00;97.90;;;;;;5052061;28;20190;-79
2023/06/26 00:50:00;;;;;;;7.60;3.87;;;17.00;97.90;;;;;;5052108;28;20268;-78
2023/06/26 00:52:26;;;;;;;7.13;3.90;;;17.00;98.10;;;;;;5051412;28;20532;-78
2023/06/26 00:54:52;;;;;;;6.87;3.77;;;16.90;98.40;;;;;;5051360;28;20197;-78
2023/06/26 00:57:18;;;;;;;6.70;3.70;;;16.90;98.50;;;;;;5052000;28;20204;-78
2023/06/26 00:59:44;;;;;;;14.30;4.60;;;16.90;98.70;;;;;;5051498;28;20230;-78
2023/06/26 01:02:10;;;;;;;8.13;3.80;;;16.90;98.60;;;;;;5050439;28;20477;-78
2023/06/26 01:04:36;;;;;;;9.67;4.57;;;17.00;98.50;;;;;;5051673;28;20185;-78
2023/06/26 01:07:03;;;;;;;9.60;3.30;;;17.00;98.30;;;;;;5051425;28;20185;-78
2023/06/26 01:09:30;;;;;;;8.80;4.07;;;16.90;98.40;;;;;;5059111;28;20434;-78
2023/06/26 01:11:56;;;;;;;5.30;3.43;;;17.00;98.50;;;;;;5051184;28;20432;-78
2023/06/26 01:14:22;;;;;;;9.40;4.30;;;16.90;98.00;;;;;;5051667;28;20447;-78
2023/06/26 01:16:49;;;;;;;8.57;3.67;;;17.00;98.00;;;;;;5051553;28;20193;-78
2023/06/26 01:19:26;;;;;;;4.87;2.93;;;17.00;97.70;;;;;;5051611;28;20273;-78
2023/06/26 01:21:57;;;;;;;8.07;4.47;;;17.10;97.80;;;;;;5050880;28;20416;-78
2023/06/26 01:24:27;;;;;;;6.90;3.50;;;17.10;97.70;;;;;;5050972;28;20416;-78
2023/06/26 01:26:53;;;;;;;7.60;4.00;;;17.20;97.70;;;;;;5051409;28;20527;-78
2023/06/26 01:29:20;;;;;;;6.40;3.77;;;17.20;97.80;;;;;;5051597;28;20900;-78
2023/06/26 01:31:49;;;;;;;7.27;3.70;;;17.20;97.70;;;;;;5050869;28;20403;-79
2023/06/26 01:34:18;;;;;;;7.20;3.70;;;17.20;97.80;;;;;;5059691;28;20404;-79
2023/06/26 01:36:45;;;;;;;6.07;3.57;;;17.20;97.50;;;;;;5051082;28;20409;-79
2023/06/26 01:39:10;;;;;;;7.90;3.00;;;17.20;97.30;;;;;;5050881;28;20458;-79
2023/06/26 01:41:36;;;;;;;5.00;2.97;;;17.20;97.20;;;;;;5050966;28;20780;-79
2023/06/26 01:44:28;;;;;;;9.30;4.47;;;17.30;97.20;;;;;;5050075;28;20197;-79
2023/06/26 01:47:01;;;;;;;13.70;4.60;;;17.30;97.00;;;;;;5037881;28;20219;-79
2023/06/26 01:49:59;;;;;;;6.47;3.93;;;17.20;97.30;;;;;;5050945;28;20419;-79
2023/06/26 01:52:35;;;;;;;6.80;3.20;;;17.10;97.90;;;;;;5017699;28;20904;-79
2023/06/26 01:55:23;;;;;;;5.63;3.70;;;17.10;97.70;;;;;;5050395;28;20494;-79
2023/06/26 01:57:53;;;;;;;6.60;3.47;;;17.00;97.80;;;;;;5051047;28;20900;-79
2023/06/26 02:00:21;;;;;;;8.40;4.00;;;17.00;97.80;;;;;;5051084;28;20408;-79
2023/06/26 02:02:47;;;;;;;7.00;3.90;;;16.90;97.90;;;;;;5050595;28;20404;-79
2023/06/26 02:05:13;;;;;;;4.97;3.37;;;16.90;97.90;;;;;;5051294;28;20593;-79
2023/06/26 02:07:39;;;;;;;7.87;3.60;;;16.90;98.10;;;;;;5055127;28;20174;-79
2023/06/26 02:10:05;;;;;;;8.53;4.10;;;16.80;98.10;;;;;;5061907;28;20456;-79
2023/06/26 02:12:31;;;;;;;6.67;3.40;;;16.80;98.40;;;;;;5052126;28;20178;-79
2023/06/26 02:14:56;;;;;;;7.40;3.60;;;16.80;98.40;;;;;;5054037;28;20766;-79
2023/06/26 02:17:22;;;;;;;6.60;3.30;;;16.70;98.40;;;;;;5057057;28;20627;-79
2023/06/26 02:19:47;;;;;;;5.30;2.60;;;16.80;98.40;;;;;;5062992;28;20631;-79
2023/06/26 02:22:15;;;;;;;5.77;3.87;;;16.80;98.30;;;;;;5054457;28;20208;-79
2023/06/26 02:24:41;;;;;;;6.83;3.83;;;16.80;98.30;;;;;;5054675;28;20670;-79
2023/06/26 02:27:06;;;;;;;8.40;3.80;;;16.90;98.30;;;;;;5054442;28;20420;-79
2023/06/26 02:29:32;;;;;;;6.40;3.97;;;16.80;98.20;;;;;;5056201;28;20513;-79
2023/06/26 02:31:57;;;;;;;7.73;3.40;;;16.90;98.00;;;;;;5059339;28;20197;-79
2023/06/26 02:34:23;;;;;;;8.93;4.10;;;17.00;97.80;;;;;;5054707;28;20565;-79
2023/06/26 02:36:49;;;;;;;7.40;3.97;;;17.10;97.90;;;;;;5055063;28;20216;-79
2023/06/26 02:39:15;;;;;;;6.70;3.13;;;17.20;97.90;;;;;;5054456;28;20193;-79
2023/06/26 02:41:40;;;;;;;8.33;3.57;;;17.30;97.70;;;;;;5054437;28;20231;-79
2023/06/26 02:44:06;;;;;;;12.23;4.27;;;17.30;97.60;;;;;;5053567;28;20205;-80
2023/06/26 02:46:33;;;;;;;6.03;3.53;;;17.30;97.50;;;;;;5054582;28;20201;-79
2023/06/26 02:48:59;;;;;;;9.03;3.97;;;17.30;97.70;;;;;;5054526;28;20650;-79
2023/06/26 02:51:24;;;;;;;8.40;4.20;;;17.30;97.90;;;;;;5053749;28;20412;-79
2023/06/26 02:53:50;;;;;;;6.33;3.87;;;17.30;97.90;;;;;;5054581;28;20178;-79
2023/06/26 02:56:16;;;;;;;6.40;3.90;;;17.30;97.90;;;;;;5053939;28;20267;-79
2023/06/26 02:58:41;;;;;;;7.10;2.87;;;17.30;98.00;;;;;;5054834;28;20619;-79
2023/06/26 03:01:07;;;;;;;6.40;3.57;;;17.30;98.10;;;;;;5054216;28;20178;-79
2023/06/26 03:03:40;;;;;;;12.37;4.10;;;17.30;98.30;;;;;;5055423;28;20599;-79
2023/06/26 03:06:08;;;;;;;7.00;3.43;;;17.30;98.10;;;;;;5054227;28;20205;-79
2023/06/26 03:08:37;;;;;;;6.77;3.60;;;17.40;98.10;;;;;;5058205;28;20403;-79
2023/06/26 03:11:03;;;;;;;7.30;3.63;;;17.40;98.40;;;;;;5054484;28;20892;-79
2023/06/26 03:13:28;;;;;;;5.33;2.80;;;17.40;98.00;;;;;;5055621;28;20412;-80
2023/06/26 03:15:54;;;;;;;7.10;3.77;;;17.40;98.00;;;;;;5054453;28;20224;-79
2023/06/26 03:18:20;;;;;;;7.83;3.20;;;17.40;98.00;;;;;;5065071;28;20185;-79
2023/06/26 03:20:45;;;;;;;9.30;3.70;;;17.40;97.90;;;;;;5055510;28;20185;-79
2023/06/26 03:23:11;;;;;;;5.73;3.17;;;17.50;97.80;;;;;;5053607;28;20181;-80
2023/06/26 03:25:37;;;;;;;5.07;2.63;;;17.60;97.70;;;;;;5053708;28;20201;-79
2023/06/26 03:28:02;;;;;;;8.70;3.23;;;17.60;97.60;;;;;;5054143;28;20177;-79
2023/06/26 03:30:28;;;;;;;6.60;3.20;;;17.60;97.70;;;;;;5056535;28;20728;-79
2023/06/26 03:32:53;;;;;;;6.80;3.83;;;17.60;97.70;;;;;;5058892;28;20181;-79
2023/06/26 03:35:19;;;;;;;10.50;4.07;;;17.60;97.80;;;;;;5054924;28;20190;-79
2023/06/26 03:37:45;;;;;;;6.57;3.33;;;17.60;97.80;;;;;;5054151;28;20185;-79
2023/06/26 03:40:10;;;;;;;6.67;3.20;;;17.60;97.60;;;;;;5054644;28;20283;-79
2023/06/26 03:42:36;;;;;;;11.67;3.93;;;17.60;97.70;;;;;;5052579;28;20693;-79
2023/06/26 03:45:02;;;;;;;8.00;2.97;;;17.60;98.00;;;;;;5054718;28;20205;-79
2023/06/26 03:47:27;;;;;;;6.60;3.60;;;17.50;98.10;;;;;;5054301;28;20248;-79
2023/06/26 03:49:53;;;;;;;5.33;3.63;;;17.50;97.70;;;;;;5054803;28;20204;-79
2023/06/26 03:52:18;;;;;;;6.57;4.10;;;17.60;97.70;;;;;;5054055;28;20213;-79
2023/06/26 03:54:44;;;;;;;14.50;4.03;;;17.60;97.80;;;;;;5049534;28;20193;-79
2023/06/26 03:57:10;;;;;;;7.27;4.40;;;17.60;97.40;;;;;;5045356;28;20178;-79
2023/06/26 03:59:36;;;;;;;8.10;3.80;;;17.60;97.50;;;;;;5055259;28;20243;-79
2023/06/26 04:02:03;;;;;;;8.87;5.30;;;17.70;97.60;;;;;;5054203;28;20193;-79
2023/06/26 04:04:29;;;;;;;8.07;4.10;;;17.60;97.90;;;;;;5056106;28;20428;-79
2023/06/26 04:06:55;;;;;;;6.77;3.10;;;17.50;97.90;;;;;;5053319;28;20452;-79
2023/06/26 04:09:20;;;;;;;6.30;3.60;;;17.50;98.20;;;;;;5054205;28;20424;-79
2023/06/26 04:11:47;;;;;;;10.13;3.73;;;17.50;98.50;;;;;;5052893;28;20728;-79
2023/06/26 04:14:13;;;;;;;8.73;3.33;;;17.40;98.70;;;;;;5054389;28;20420;-80
2023/06/26 04:16:39;;;;;;;8.63;3.20;;;17.40;98.70;;;;;;5054970;28;20185;-79
2023/06/26 04:19:04;;;;;;;11.03;3.90;;;17.40;98.90;;;;;;5053800;28;20185;-79
2023/06/26 04:21:30;;;;;;;8.73;3.70;;;17.40;98.60;;;;;;5054021;28;20189;-79
2023/06/26 04:23:56;;;;;;;13.83;3.70;;;17.40;98.60;;;;;;5054842;28;20623;-79
2023/06/26 04:26:22;;;;;;;12.17;4.50;;;17.50;98.80;;;;;;5054722;28;20239;-79
2023/06/26 04:28:48;;;;;;;7.17;4.20;;;17.50;98.90;;;;;;5051270;28;20235;-79
2023/06/26 04:31:13;;;;;;;6.30;3.70;;;17.50;98.80;;;;;;5057306;28;20186;-79
2023/06/26 04:33:39;;;;;;;8.10;3.23;;;17.50;98.70;;;;;;5067642;28;20196;-79
2023/06/26 04:36:05;;;;;;;6.40;3.50;;;17.60;98.90;;;;;;5061260;28;20186;-79
2023/06/26 04:38:33;;;;;;;5.60;3.63;;;17.60;98.50;;;;;;5052337;28;20190;-80
2023/06/26 04:40:58;;;;;;;10.63;3.60;;;17.80;98.10;;;;;;5052283;28;20869;-80
2023/06/26 04:43:24;;;;;;;4.80;2.53;;;17.80;98.30;;;;;;5051165;28;20425;-79
2023/06/26 04:45:50;;;;;;;7.33;3.70;;;17.90;98.30;;;;;;5052541;28;20358;-80
2023/06/26 04:48:15;;;;;;;10.43;3.17;;;18.00;98.20;;;;;;5051950;28;20190;-80
2023/06/26 04:50:41;;;;;;;6.00;3.10;;;18.00;98.60;;;;;;5051864;28;20188;-81
2023/06/26 04:53:07;;;;;;;7.43;3.60;;;18.00;98.50;;;;;;5051960;28;20201;-80
2023/06/26 04:55:32;;;;;;;5.23;3.00;;;18.00;98.70;;;;;;5052277;28;20605;-80
2023/06/26 04:57:58;;;;;;;8.93;4.27;;;18.10;98.30;;;;;;5051905;28;20281;-79
2023/06/26 05:00:24;;;;;;;7.47;3.77;;;18.20;98.40;;;;;;5052185;28;20193;-80
2023/06/26 05:03:00;;;;;;;7.50;3.63;;;18.10;98.60;;;;;;5049447;28;20543;-80
2023/06/26 05:05:26;;;;;;;8.03;3.57;;;18.30;98.00;;;;;;5051805;28;20835;-79
2023/06/26 05:07:54;;;;;;;9.47;2.80;;;18.40;97.90;;;;;;5050933;28;20925;-78
2023/06/26 05:10:19;;;;;;;9.13;4.00;;;18.50;97.60;;;;;;5055617;28;20217;-79
2023/06/26 05:12:45;;;;;;;6.57;2.80;;;18.50;97.40;;;;;;5049438;28;20459;-79
2023/06/26 05:15:10;;;;;;;10.47;3.27;;;18.60;96.90;;;;;;5051328;28;20598;-79
2023/06/26 05:17:36;;;;;;;11.20;3.40;;;18.80;96.90;;;;;;5052346;28;20194;-79
2023/06/26 05:20:03;;;;;;;8.07;4.00;;;18.70;97.00;;;;;;5052035;28;20269;-80
2023/06/26 05:22:29;;;;;;;6.53;3.07;;;18.80;96.90;;;;;;5051209;28;20182;-79
2023/06/26 05:24:57;;;;;;;7.53;3.67;;;18.90;96.50;;;;;;5050922;28;20475;-79
2023/06/26 05:27:23;;;;;;;5.90;3.77;;;19.10;96.30;;;;;;5038352;28;20442;-79
2023/06/26 05:29:50;;;;;;;6.87;3.37;;;19.20;96.10;;;;;;5055012;28;20900;-78
2023/06/26 05:32:19;;;;;;;6.50;3.57;;;19.30;95.70;;;;;;5060302;28;20260;-79
2023/06/26 05:34:49;;;;;;;6.47;3.27;;;19.40;95.50;;;;;;5057976;28;20761;-79
2023/06/26 05:37:20;;;;;;;3.60;2.13;;;19.50;95.40;;;;;;5051511;28;20772;-79
2023/06/26 05:39:46;;;;;;;7.50;3.70;;;19.50;95.40;;;;;;5051385;28;20428;-79
2023/06/26 05:42:14;;;;;;;6.20;2.73;;;19.60;94.90;;;;;;5051466;28;20431;-79
2023/06/26 05:44:40;;;;;;;8.70;3.23;;;19.80;94.50;;;;;;5050140;28;20566;-79
2023/06/26 05:47:06;;;;;;;8.40;2.80;;;20.00;94.20;;;;;;5052042;28;20558;-78
2023/06/26 05:49:33;;;;;;;8.80;3.50;;;20.00;93.70;;;;;;5054426;28;20178;-79
2023/06/26 05:51:59;;;;;;;12.43;3.83;;;20.10;93.90;;;;;;5055964;28;20427;-78
2023/06/26 05:54:25;;;;;;;7.00;3.33;;;20.10;93.90;;;;;;5056191;28;20469;-78
2023/06/26 05:56:55;;;;;;;8.00;3.10;;;20.30;93.50;;;;;;5055863;28;20201;-78
2023/06/26 05:59:22;;;;;;;7.17;3.30;;;20.30;93.30;;;;;;5056098;28;20197;-79
2023/06/26 06:01:48;;;;;;;4.97;2.93;;;20.40;93.60;;;;;;5055756;28;20425;-79
2023/06/26 06:04:13;;;;;;;7.33;3.40;;;20.40;93.60;;;;;;5056928;28;20424;-79
2023/06/26 06:06:39;;;;;;;6.27;3.47;;;20.50;93.30;;;;;;5056301;28;20510;-79
2023/06/26 06:09:04;;;;;;;8.43;3.60;;;20.60;93.30;;;;;;5061761;28;20615;-79
2023/06/26 06:11:30;;;;;;;9.97;3.93;;;20.70;93.10;;;;;;5065808;28;20186;-79
2023/06/26 06:13:56;;;;;;;5.33;2.97;;;20.80;92.90;;;;;;5057291;28;20190;-79
2023/06/26 06:16:21;;;;;;;8.83;3.10;;;20.80;93.30;;;;;;5056567;28;20264;-78
2023/06/26 06:18:47;;;;;;;7.80;3.60;;;20.90;92.70;;;;;;5071442;28;20302;-79
2023/06/26 06:21:12;;;;;;;4.43;3.30;;;21.10;92.70;;;;;;5054666;28;20220;-79
2023/06/26 06:23:38;;;;;;;9.50;4.03;;;21.10;92.50;;;;;;5055294;28;20201;-78
2023/06/26 06:26:04;;;;;;;4.50;2.40;;;21.20;92.50;;;;;;5053884;28;20211;-78
2023/06/26 06:28:29;;;;;;;5.10;3.10;;;21.30;92.60;;;;;;5036448;28;20189;-78
2023/06/26 06:30:55;;;;;;;7.10;3.10;;;21.40;92.80;;;;;;5060294;28;20185;-78
2023/06/26 06:33:20;;;;;;;6.23;3.07;;;21.60;92.40;;;;;;5058182;28;20189;-79
2023/06/26 06:35:46;;;;;;;4.53;2.93;;;21.70;92.30;;;;;;5054288;28;20198;-79
2023/06/26 06:38:12;;;;;;;9.40;3.93;;;21.70;92.00;;;;;;5053567;28;20645;-79
2023/06/26 06:40:37;;;;;;;5.00;2.50;;;22.00;91.30;;;;;;5053612;28;20232;-79
2023/06/26 06:43:03;;;;;;;8.60;3.57;;;22.20;90.70;;;;;;5054425;28;20635;-78
2023/06/26 06:45:29;;;;;;;5.20;3.13;;;22.40;91.00;;;;;;5050940;28;20574;-78
2023/06/26 06:47:54;;;;;;;9.83;3.27;;;22.60;90.10;;;;;;5051146;28;20618;-78
2023/06/26 06:50:20;;;;;;;6.40;2.93;;;22.70;90.70;;;;;;5053844;28;20428;-78
2023/06/26 06:52:46;;;;;;;7.20;3.53;;;22.70;90.60;;;;;;5052930;28;20277;-78
2023/06/26 06:55:11;;;;;;;6.37;3.20;;;22.80;90.50;;;;;;5054330;28;20186;-78
2023/06/26 06:57:40;;;;;;;4.70;3.00;;;23.00;89.80;;;;;;5053958;28;20178;-78
2023/06/26 07:00:11;;;;;;;5.10;2.80;;;23.10;89.80;;;;;;5053710;28;20185;-78
2023/06/26 07:02:37;;;;;;;4.27;2.43;;;23.30;90.30;;;;;;5035436;28;20439;-78
2023/06/26 07:05:04;;;;;;;7.20;2.70;;;23.40;90.60;;;;;;5053842;28;20912;-78
2023/06/26 07:07:31;;;;;;;7.23;3.13;;;23.60;90.00;;;;;;5055689;28;20446;-78
2023/06/26 07:10:02;;;;;;;5.17;3.30;;;23.80;89.70;;;;;;5065043;28;20510;-78
2023/06/26 07:12:28;;;;;;;8.80;3.50;;;23.90;89.60;;;;;;5055157;28;20408;-77
2023/06/26 07:14:55;;;;;;;5.43;2.70;;;24.10;88.90;;;;;;5053439;28;20424;-78
2023/06/26 07:17:21;;;;;;;8.20;2.97;;;24.30;87.40;;;;;;5055082;28;21096;-77
2023/06/26 07:19:47;;;;;;;6.93;3.40;;;24.60;85.50;;;;;;5060082;28;20420;-77
2023/06/26 07:22:13;;;;;;;4.63;2.77;;;24.80;85.60;;;;;;5047444;28;20208;-77
2023/06/26 07:24:38;;;;;;;10.57;3.10;;;25.00;85.00;;;;;;5052854;28;20832;-77
2023/06/26 07:27:04;;;;;;;4.33;2.70;;;25.20;84.40;;;;;;5052797;28;20265;-77
2023/06/26 07:29:30;;;;;;;6.23;2.90;;;25.60;83.70;;;;;;5052799;28;20181;-77
2023/06/26 07:31:55;;;;;;;5.00;2.60;;;26.00;82.70;;;;;;5060238;28;20236;-77
2023/06/26 07:34:21;;;;;;;5.50;2.83;;;26.30;81.00;;;;;;5060838;28;20174;-77
2023/06/26 07:36:46;;;;;;;5.83;2.90;;;26.60;81.90;;;;;;5052391;28;20192;-77
2023/06/26 07:39:12;;;;;;;8.37;3.90;;;26.90;80.70;;;;;;5052554;28;20208;-77
2023/06/26 07:41:37;;;;;;;5.47;3.43;;;27.40;79.30;;;;;;5052223;28;20203;-76
2023/06/26 07:44:03;;;;;;;7.47;3.10;;;28.20;77.90;;;;;;5052133;28;20287;-78
2023/06/26 07:46:29;;;;;;;5.40;3.25;;;29.00;74.30;;;;;;5053526;28;20267;-74
2023/06/26 07:48:55;;;;;;;5.85;2.90;;;29.60;73.50;;;;;;5053443;28;20189;-74
2023/06/26 07:51:21;;;;;;;7.72;3.50;;;30.20;70.50;;;;;;5052186;28;20192;-74
2023/06/26 07:53:47;;;;;;;6.38;2.85;;;31.30;68.30;;;;;;5052710;28;20180;-74
2023/06/26 07:56:12;;;;;;;4.60;3.28;;;32.40;63.80;;;;;;5051691;28;20216;-74
2023/06/26 07:58:38;;;;;;;5.05;2.92;;;32.90;61.90;;;;;;5052542;28;20195;-73
2023/06/26 08:01:04;;;;;;;4.43;2.53;;;33.40;60.70;;;;;;5051601;28;20256;-74
2023/06/26 08:03:29;;;;;;;3.75;2.65;;;32.80;59.70;;;;;;5052105;28;20185;-75
2023/06/26 08:05:55;;;;;;;4.13;2.45;;;32.50;58.50;;;;;;5051939;28;20251;-74
2023/06/26 08:08:20;;;;;;;5.70;3.50;;;32.50;59.10;;;;;;5059858;28;20182;-74
2023/06/26 08:10:46;;;;;;;6.95;3.70;;;33.60;59.10;;;;;;5060557;28;20180;-73
2023/06/26 08:13:12;;;;;;;5.75;2.90;;;33.50;59.10;;;;;;5051741;28;20185;-74
2023/06/26 08:15:39;;;;;;;5.43;3.17;;;33.40;58.70;;;;;;5051498;28;20216;-74
2023/06/26 08:18:04;;;;;;;4.18;2.58;;;33.50;58.10;;;;;;5059853;28;20212;-74
2023/06/26 08:20:30;;;;;;;7.20;2.95;;;33.50;55.90;;;;;;5054175;28;20220;-73
2023/06/26 08:22:55;;;;;;;4.10;2.47;;;33.40;56.10;;;;;;5051230;28;20648;-73
2023/06/26 08:25:21;;;;;;;8.18;3.72;;;33.00;55.60;;;;;;5051364;28;20197;-73
2023/06/26 08:27:47;;;;;;;4.70;2.75;;;33.10;55.50;;;;;;5051946;28;20270;-73
2023/06/26 08:30:13;;;;;;;6.10;3.00;;;33.10;55.10;;;;;;5052194;28;20185;-74
2023/06/26 08:32:39;;;;;;;6.88;3.10;;;33.30;54.40;;;;;;5062957;28;20177;-74
2023/06/26 08:35:06;;;;;;;3.72;2.30;;;33.50;54.70;;;;;;5054379;28;20186;-74
2023/06/26 08:37:32;;;;;;;5.15;3.00;;;32.90;54.60;;;;;;5050783;28;20283;-74
2023/06/26 08:39:59;;;;;;;6.60;3.08;;;32.90;54.90;;;;;;5051265;28;20713;-73
2023/06/26 08:42:25;;;;;;;9.25;2.63;;;33.30;55.10;;;;;;5049167;28;20230;-74
2023/06/26 08:44:50;;;;;;;8.45;3.13;;;33.30;55.30;;;;;;5050866;28;20213;-73
2023/06/26 08:47:16;;;;;;;5.78;3.03;;;33.50;54.70;;;;;;5050692;28;20308;-74
2023/06/26 08:50:00;;;;;;;6.03;2.90;;;33.70;54.50;;;;;;5033017;28;20192;-74
2023/06/26 08:52:33;;;;;;;5.05;2.80;;;33.90;53.20;;;;;;5050074;28;20264;-75
2023/06/26 08:55:05;;;;;;;4.97;3.08;;;33.80;52.80;;;;;;5050938;28;20173;-75
2023/06/26 08:57:32;;;;;;;4.80;3.10;;;33.20;53.40;;;;;;5050638;28;20181;-74
2023/06/26 08:59:58;;;;;;;7.22;3.25;;;33.30;54.30;;;;;;5051013;28;20618;-74
2023/06/26 09:02:24;;;;;;;4.78;2.95;;;34.10;53.20;;;;;;5046834;28;21010;-73
2023/06/26 09:04:50;;;;;;;6.30;3.15;;;33.80;52.40;;;;;;5055627;28;20169;-76
2023/06/26 09:07:16;;;;;;;6.38;3.40;;;33.70;53.80;;;;;;5055204;28;20606;-76
2023/06/26 09:09:43;;;;;;;6.07;2.88;;;33.80;52.10;;;;;;5064345;28;20223;-74
2023/06/26 09:12:09;;;;;;;5.63;2.65;;;34.30;49.90;;;;;;5052613;28;20672;-74
2023/06/26 09:14:36;;;;;;;5.88;2.90;;;33.90;51.30;;;;;;5049468;28;20181;-73
2023/06/26 09:17:02;;;;;;;5.78;3.75;;;33.60;51.20;;;;;;5049442;28;20260;-74
2023/06/26 09:19:27;;;;;;;4.05;2.35;;;33.60;51.10;;;;;;5050012;28;20193;-74
2023/06/26 09:21:54;;;;;;;10.50;2.63;;;32.80;52.00;;;;;;5058518;28;20562;-74
2023/06/26 09:24:21;;;;;;;5.38;3.03;;;32.10;53.00;;;;;;5031043;28;20602;-74
2023/06/26 09:26:48;;;;;;;3.33;1.92;;;31.40;53.50;;;;;;5048453;28;20566;-74
2023/06/26 09:29:15;;;;;;;6.35;3.10;;;30.90;54.90;;;;;;5049304;28;20185;-73
2023/06/26 09:31:41;;;;;;;5.65;3.67;;;30.80;54.90;;;;;;5057084;28;20177;-73
2023/06/26 09:34:06;;;;;;;4.78;2.60;;;30.90;56.10;;;;;;5053972;28;20701;-75
2023/06/26 09:36:33;;;;;;;7.82;3.38;;;31.40;55.60;;;;;;5046379;28;20193;-75
2023/06/26 09:39:01;;;;;;;7.30;2.42;;;31.60;54.50;;;;;;5046801;28;20603;-74
2023/06/26 09:41:27;;;;;;;5.35;3.60;;;31.60;54.30;;;;;;5048181;28;20193;-75
2023/06/26 09:43:52;;;;;;;8.70;3.70;;;32.10;52.70;;;;;;5048817;28;20791;-75
2023/06/26 09:46:28;;;;;;;5.88;2.90;;;32.30;52.90;;;;;;5049291;28;20613;-75
2023/06/26 09:49:07;;;;;;;5.75;3.15;;;32.10;53.20;;;;;;5049329;28;20897;-74
2023/06/26 09:51:34;;;;;;;6.72;3.00;;;32.60;52.50;;;;;;5048361;28;20181;-76
2023/06/26 09:54:01;;;;;;;5.60;3.05;;;32.80;51.30;;;;;;5049243;28;20183;-74
2023/06/26 09:56:28;;;;;;;5.10;2.60;;;33.00;50.30;;;;;;5049140;28;20185;-74
2023/06/26 09:58:58;;;;;;;7.20;3.38;;;33.00;50.30;;;;;;5049584;28;20181;-76
2023/06/26 10:01:25;;;;;;;4.00;2.65;;;33.00;50.30;;;;;;5048888;28;20184;-74
2023/06/26 10:03:51;;;;;;;5.15;2.78;;;32.40;52.50;;;;;;5049739;28;20304;-77
2023/06/26 10:06:28;;;;;;;5.55;2.70;;;32.40;52.20;;;;;;5049008;28;20197;-75
2023/06/26 10:08:58;;;;;;;7.53;2.70;;;31.80;53.10;;;;;;5059601;28;20189;-76
2023/06/26 10:11:27;;;;;;;5.55;2.95;;;31.70;53.50;;;;;;5058819;28;20534;-68
2023/06/26 10:13:54;;;;;;;12.00;3.03;;;32.10;54.20;;;;;;5048807;28;20407;-68
2023/06/26 10:16:28;;;;;;;16.05;2.80;;;31.60;54.60;;;;;;5049444;28;20813;-68
2023/06/26 10:18:58;;;;;;;7.03;2.17;;;31.70;54.90;;;;;;5060481;28;20603;-68
2023/06/26 10:21:28;;;;;;;6.20;3.60;;;31.80;54.70;;;;;;5048087;28;20192;-68
2023/06/26 10:23:55;;;;;;;11.75;2.67;;;31.80;53.90;;;;;;5048436;28;20192;-68
2023/06/26 10:26:23;;;;;;;4.22;2.40;;;31.40;55.00;;;;;;5048574;28;20265;-68
2023/06/26 10:28:52;;;;;;;6.90;2.80;;;31.00;55.40;;;;;;5048690;28;20243;-68
2023/06/26 10:31:22;;;;;;;5.88;2.83;;;31.00;55.40;;;;;;5056954;28;20179;-69
2023/06/26 10:33:49;;;;;;;3.95;2.70;;;30.60;56.60;;;;;;5048199;28;20215;-69
2023/06/26 10:36:27;;;;;;;5.93;3.35;;;30.70;56.30;;;;;;5051253;28;20276;-69
2023/06/26 10:39:06;;;;;;;5.35;3.00;;;30.60;56.60;;;;;;5038962;28;21017;-69
2023/06/26 10:41:39;;;;;;;6.63;3.53;;;30.30;58.30;;;;;;5052159;28;20189;-69
2023/06/26 10:44:11;;;;;;;7.03;3.15;;;30.40;59.40;;;;;;5051485;28;20199;-68
2023/06/26 10:47:06;;;;;;;4.50;2.65;;;30.50;59.50;;;;;;5052307;28;20285;-68
2023/06/26 10:49:31;;;;;;;5.43;2.90;;;30.60;59.20;;;;;;5034896;28;20200;-68
2023/06/26 10:52:01;;;;;;;7.43;3.70;;;30.60;59.40;;;;;;5051613;28;20181;-68
2023/06/26 10:54:30;;;;;;;4.78;2.90;;;30.50;60.00;;;;;;5051945;28;20205;-68
2023/06/26 10:56:58;;;;;;;5.07;2.97;;;30.10;61.50;;;;;;5051704;28;20188;-68
2023/06/26 10:59:26;;;;;;;5.75;3.25;;;30.00;61.70;;;;;;5052187;28;20185;-68
2023/06/26 11:02:04;;;;;;;6.70;3.03;;;29.60;62.80;;;;;;5051879;28;20196;-68
2023/06/26 11:04:47;;;;;;;6.18;3.58;;;29.70;63.50;;;;;;5051323;28;20287;-68
2023/06/26 11:07:19;;;;;;;5.20;3.00;;;29.50;62.70;;;;;;5051300;28;20719;-68
2023/06/26 11:09:58;;;;;;;5.40;3.30;;;29.50;64.50;;;;;;5068177;28;20208;-68
2023/06/26 11:12:41;;;;;;;3.93;2.80;;;29.70;63.60;;;;;;5054259;28;20188;-69
2023/06/26 11:15:15;;;;;;;12.40;4.65;;;29.90;61.40;;;;;;5026811;28;20185;-68
2023/06/26 11:17:42;;;;;;;7.50;4.00;;;29.90;62.80;;;;;;5043876;28;20173;-69
2023/06/26 11:20:10;;;;;;;4.88;2.72;;;30.00;61.20;;;;;;5058421;28;20538;-69
2023/06/26 11:22:37;;;;;;;7.07;3.42;;;30.10;61.60;;;;;;5051536;28;20188;-69
2023/06/26 11:25:04;;;;;;;7.07;2.80;;;30.20;61.70;;;;;;5051742;28;20192;-69
2023/06/26 11:27:38;;;;;;;7.63;3.17;;;30.40;61.20;;;;;;5051507;28;20761;-69
2023/06/26 11:30:08;;;;;;;7.15;3.22;;;30.30;60.10;;;;;;5051202;28;20189;-70
2023/06/26 11:32:35;;;;;;;4.65;2.58;;;30.40;60.00;;;;;;5053897;28;20272;-69
2023/06/26 11:35:01;;;;;;;4.13;2.95;;;30.10;61.20;;;;;;5051938;28;20213;-69
2023/06/26 11:37:26;;;;;;;11.05;3.75;;;30.40;59.90;;;;;;5050996;28;20211;-69
2023/06/26 11:39:52;;;;;;;6.07;3.22;;;30.10;61.00;;;;;;5051969;28;20619;-69
2023/06/26 11:42:21;;;;;;;7.50;3.97;;;30.00;60.30;;;;;;5050845;28;20188;-68
2023/06/26 11:44:47;;;;;;;8.20;4.07;;;30.10;60.00;;;;;;5051462;28;20207;-69
2023/06/26 11:47:15;;;;;;;8.25;3.55;;;29.90;61.40;;;;;;5051526;28;20217;-68
2023/06/26 11:49:45;;;;;;;7.10;3.45;;;30.00;61.70;;;;;;5051393;28;20740;-70
2023/06/26 11:52:11;;;;;;;8.32;4.10;;;30.10;61.80;;;;;;5050701;28;20181;-69
2023/06/26 11:54:37;;;;;;;6.30;3.20;;;30.10;61.60;;;;;;5050903;28;20192;-69
2023/06/26 11:57:03;;;;;;;14.10;4.20;;;29.60;63.60;;;;;;5050778;28;20184;-69
2023/06/26 11:59:36;;;;;;;6.53;3.50;;;29.40;64.30;;;;;;5051162;28;20184;-69
2023/06/26 12:02:09;;;;;;;10.53;3.47;;;29.50;64.30;;;;;;5050913;28;20185;-68
2023/06/26 12:04:38;;;;;;;6.97;3.10;;;29.20;64.40;;;;;;5051091;28;20173;-69
2023/06/26 12:07:07;;;;;;;8.57;3.60;;;29.10;64.80;;;;;;5050683;28;20254;-69
2023/06/26 12:09:35;;;;;;;5.65;2.75;;;29.50;64.00;;;;;;5047183;28;20184;-69
2023/06/26 12:12:02;;;;;;;11.90;3.80;;;29.80;64.80;;;;;;5050240;28;20186;-69
2023/06/26 12:14:28;;;;;;;7.60;3.85;;;29.90;64.00;;;;;;5050595;28;20272;-69
2023/06/26 12:16:54;;;;;;;6.72;3.85;;;29.70;64.00;;;;;;5050222;28;20192;-69
2023/06/26 12:19:26;;;;;;;4.63;3.17;;;29.80;64.90;;;;;;5061171;28;20197;-69
2023/06/26 12:21:52;;;;;;;8.80;3.42;;;29.90;64.90;;;;;;5049265;28;20208;-69
2023/06/26 12:24:22;;;;;;;7.72;4.03;;;30.20;65.40;;;;;;5049618;28;20189;-69
2023/06/26 12:26:56;;;;;;;5.88;3.47;;;30.50;63.90;;;;;;5049125;28;20240;-69
2023/06/26 12:29:29;;;;;;;6.50;3.03;;;30.00;64.60;;;;;;5051463;28;20185;-68
2023/06/26 12:31:55;;;;;;;4.65;2.92;;;29.60;65.80;;;;;;5056318;28;20307;-68
2023/06/26 12:34:27;;;;;;;6.80;3.30;;;29.60;67.40;;;;;;5059109;28;20264;-69
2023/06/26 12:36:53;;;;;;;7.10;3.83;;;29.70;67.30;;;;;;5058158;28;20323;-68
2023/06/26 12:39:22;;;;;;;7.68;3.10;;;30.00;65.10;;;;;;5051084;28;20256;-69
2023/06/26 12:41:57;;;;;;;4.75;2.83;;;29.90;67.10;;;;;;5050602;28;20195;-69
2023/06/26 12:44:28;;;;;;;3.97;2.88;;;30.10;66.90;;;;;;5050531;28;20645;-69
2023/06/26 12:47:01;;;;;;;4.45;2.97;;;30.00;66.70;;;;;;5050297;28;20219;-69